Terminal Aerodrome Forecast
Issued by NWS

Current Version | Previous Version | Text Only | Print | Product List | Glossary Off
Versions: 1 2 3 4 5 6 7 8 9 10 11 12 13 14 15 16 17 18 19 20 21

326
FTUS41 KRLX 211731
TAFCKB
TAF
KCKB 211731Z 2118/2218 26008KT P6SM BKN015
     FM212000 29007KT P6SM SCT040 BKN060
     FM220400 35005KT P6SM BKN060
     FM220600 36006KT P6SM BKN025
     FM221200 01004KT P6SM OVC015
     FM221400 02005KT P6SM SHRA OVC015=

USA.gov is the U.S. government's official web portal to all federal, state and local government web resources and services.